Brisbane International Airport
YBBN : rendu visible

Aérodrome :











RETROUVEZ-NOUS SUR...

 
LOGIN :

S'inscrire | Disclaimer

   EN    FR    IT 

 









Légende :    VFR   VFR Marginal   IFR   IFR Intensif   IFR Très Intensif
Visi : 
Plafond : 
>= 8 km
>= 3000ft
5 à 8 km
1000 à 3000 ft
1500m à 5 km
500 à 1000 ft
800 à 1500m
200 à 500 ft
< 800m
< 200 ft
Symboles :   Orages  Brouillard  Fortes neiges  Fortes précipitations  Vent > 20 kt






- Altitude de l'aérodrome : 13 ft
- Code IATA : BNE


YBBN - Brisbane International

DERNIER METAR :
  • 281000Z 01017KT 9999 FEW035 23/18 Q1014

METARs EXPIRÉS :
  • 280930Z 01016KT CAVOK 24/18 Q1014
  • 280900Z 02016KT CAVOK 24/18 Q1014
  • 280830Z 02016KT CAVOK 24/18 Q1014
  • 280800Z 02016KT CAVOK 24/18 Q1013

TAF TAF YBBN
Valide du 28 à 09h jusqu'au 29 à 12h UTC


280800Z 2809/2912 03014KT CAVOK
FM281100 34007KT 9999 FEW020
FM282200 36010KT CAVOK
FM290200 03017KT CAVOK
FM291100 35010KT CAVOK
FIR YBBB / Océanie



MET'MAP, la Météo Aéronautique d'un coup d'oeil ! - Copyright ORBIFLY Décembre 2007 - Disclaimer

ORBIFLY MET'MAP TEAM :

Programmation & Développement : Alexandra Zaïnal
Sur une idée originale de : Baudouin d'Aumeries
Assistance à la programmation : Marc-Olivier Méhu
Soutien technique & logistique : Manuel Goepfert

Contact : metmap@orbifly.com




SOURCES & CREDITS :

   NOAA       Earth
Advisory